首页
METAR-TAF:

METAR-TAF

机场 :

亞歷山德魯波利斯德謨克利特國際機場

亞歷山德魯波利斯, 希腊

纬度: 40-51N, 经度: 025-55E, 海拔: 7米

当前天气观测

该预报发布于5小时和49分钟前的19:20 UTC
风速8节,风向北转西北
温度 23°C
湿度 83%
气压 1007 hPa
能见度10公里或以上
少量云层高于2500英尺, 塔状积云.
多云层高于3000英尺

METAR: LGAL 171920Z 34008KT 9999 FEW025TCU BKN030 23/20 Q1007

时间: 04:09 (01:09 UTC)

预报

该预报发布于2小时和9分钟前的23:00 UTC
预报有效从18日的 00点(UTC)到 18日的 09点(UTC)
风速12节,风向东北
能见度10公里或以上
少量云层高于2500英尺
多云层高于3000英尺
几率 30% :
短暂存在
从 18日的 00点(UTC)到 18日的 03点(UTC)
能見度: 4000
少量云层高于1800英尺, 积雨云.
多云层高于2500英尺
雷暴, 雨

TAF: LGAL 172300Z 1800/1809 04012KT 9999 FEW025 BKN030 PROB30 TEMPO 1800/1803 4000 TSRA FEW018CB BKN025

超过4000个机场的气象观测和天气预报(METAR&TAF报告)。

可查询的气象台以黄色和红色小点在地图上表示。

将鼠标移到小点上方,可查看气象台名称。

然后点击查看天气观测和预报。

如需切换地图:点击带黑十字的绿色按钮放大地图;点击带横线的绿色按钮缩小地图;或者点击绿色箭头查看邻近地区的地图。


METAR-TAF: